sensor_id;sensor_type;location;lat;lon;timestamp;pressure;altitude;pressure_sealevel;temperature;humidity
5777;BME280;2914;42.668;23.346;2023-05-11T00:01:06;94716.64;;;9.72;97.94
5777;BME280;2914;42.668;23.346;2023-05-11T00:03:35;94730.60;;;9.62;98.40
5777;BME280;2914;42.668;23.346;2023-05-11T00:06:05;94730.60;;;9.62;98.40
5777;BME280;2914;42.668;23.346;2023-05-11T00:08:34;94721.88;;;9.62;98.71
5777;BME280;2914;42.668;23.346;2023-05-11T00:11:06;94721.88;;;9.62;98.71
5777;BME280;2914;42.668;23.346;2023-05-11T00:13:35;94730.69;;;9.66;98.65
5777;BME280;2914;42.668;23.346;2023-05-11T00:16:05;94730.11;;;9.63;99.17
5777;BME280;2914;42.668;23.346;2023-05-11T00:18:34;94730.11;;;9.63;99.17
5777;BME280;2914;42.668;23.346;2023-05-11T00:21:03;94722.29;;;9.67;98.35
5777;BME280;2914;42.668;23.346;2023-05-11T00:23:32;94730.33;;;9.65;98.64
5777;BME280;2914;42.668;23.346;2023-05-11T00:26:01;94729.09;;;9.70;99.03
5777;BME280;2914;42.668;23.346;2023-05-11T00:28:30;94735.00;;;9.67;99.37
5777;BME280;2914;42.668;23.346;2023-05-11T00:30:59;94735.00;;;9.67;99.37
5777;BME280;2914;42.668;23.346;2023-05-11T00:33:28;94727.52;;;9.57;99.89
5777;BME280;2914;42.668;23.346;2023-05-11T00:35:57;94717.92;;;9.62;99.29
5777;BME280;2914;42.668;23.346;2023-05-11T00:38:26;94726.34;;;9.56;99.53
5777;BME280;2914;42.668;23.346;2023-05-11T00:40:55;94722.80;;;9.51;100.00
5777;BME280;2914;42.668;23.346;2023-05-11T00:43:24;94722.80;;;9.51;100.00
5777;BME280;2914;42.668;23.346;2023-05-11T00:45:53;94727.52;;;9.57;99.29
5777;BME280;2914;42.668;23.346;2023-05-11T00:48:23;94732.38;;;9.46;99.38
5777;BME280;2914;42.668;23.346;2023-05-11T00:50:52;94739.38;;;9.42;100.00
5777;BME280;2914;42.668;23.346;2023-05-11T00:53:21;94727.56;;;9.36;100.00
5777;BME280;2914;42.668;23.346;2023-05-11T00:55:50;94745.41;;;9.32;100.00
5777;BME280;2914;42.668;23.346;2023-05-11T00:58:19;94728.88;;;9.21;100.00
5777;BME280;2914;42.668;23.346;2023-05-11T01:00:49;94728.88;;;9.21;100.00
5777;BME280;2914;42.668;23.346;2023-05-11T01:03:18;94740.03;;;9.13;100.00
5777;BME280;2914;42.668;23.346;2023-05-11T01:05:52;94735.27;;;9.12;100.00
5777;BME280;2914;42.668;23.346;2023-05-11T01:08:23;94730.65;;;9.20;100.00
5777;BME280;2914;42.668;23.346;2023-05-11T01:13:36;94730.05;;;9.22;100.00
5777;BME280;2914;42.668;23.346;2023-05-11T01:16:08;94733.64;;;9.21;100.00
5777;BME280;2914;42.668;23.346;2023-05-11T01:18:41;94727.77;;;9.02;100.00
5777;BME280;2914;42.668;23.346;2023-05-11T01:21:11;94734.22;;;9.04;100.00
5777;BME280;2914;42.668;23.346;2023-05-11T01:23:53;94734.22;;;9.04;100.00
5777;BME280;2914;42.668;23.346;2023-05-11T01:26:38;94733.75;;;9.04;100.00
5777;BME280;2914;42.668;23.346;2023-05-11T01:29:34;94729.81;;;9.04;100.00
5777;BME280;2914;42.668;23.346;2023-05-11T01:32:05;94733.42;;;8.97;100.00
5777;BME280;2914;42.668;23.346;2023-05-11T01:34:36;94737.38;;;8.97;100.00
5777;BME280;2914;42.668;23.346;2023-05-11T01:37:10;94744.22;;;8.89;100.00
5777;BME280;2914;42.668;23.346;2023-05-11T01:39:41;94744.22;;;8.89;100.00
5777;BME280;2914;42.668;23.346;2023-05-11T01:42:12;94735.11;;;8.93;100.00
5777;BME280;2914;42.668;23.346;2023-05-11T01:44:44;94740.37;;;8.98;100.00
5777;BME280;2914;42.668;23.346;2023-05-11T01:47:15;94741.72;;;8.87;100.00
5777;BME280;2914;42.668;23.346;2023-05-11T01:49:45;94733.73;;;8.83;100.00
5777;BME280;2914;42.668;23.346;2023-05-11T01:52:16;94733.73;;;8.83;100.00
5777;BME280;2914;42.668;23.346;2023-05-11T01:54:47;94732.02;;;8.93;100.00
5777;BME280;2914;42.668;23.346;2023-05-11T01:57:18;94754.89;;;8.81;100.00
5777;BME280;2914;42.668;23.346;2023-05-11T01:59:49;94741.98;;;8.84;100.00
5777;BME280;2914;42.668;23.346;2023-05-11T02:02:18;94740.89;;;8.87;100.00
5777;BME280;2914;42.668;23.346;2023-05-11T02:04:48;94739.97;;;8.76;100.00
5777;BME280;2914;42.668;23.346;2023-05-11T02:07:18;94747.03;;;8.76;100.00
5777;BME280;2914;42.668;23.346;2023-05-11T02:09:49;94760.55;;;8.77;100.00
5777;BME280;2914;42.668;23.346;2023-05-11T02:12:19;94736.25;;;8.79;100.00
5777;BME280;2914;42.668;23.346;2023-05-11T02:14:51;94739.77;;;8.74;100.00
5777;BME280;2914;42.668;23.346;2023-05-11T02:17:23;94747.86;;;8.82;100.00
5777;BME280;2914;42.668;23.346;2023-05-11T02:19:53;94746.80;;;8.73;100.00
5777;BME280;2914;42.668;23.346;2023-05-11T02:22:24;94742.30;;;8.70;100.00
5777;BME280;2914;42.668;23.346;2023-05-11T02:24:53;94731.88;;;8.74;99.91
5777;BME280;2914;42.668;23.346;2023-05-11T02:27:22;94740.72;;;8.73;100.00
5777;BME280;2914;42.668;23.346;2023-05-11T02:29:52;94723.36;;;8.76;99.51
5777;BME280;2914;42.668;23.346;2023-05-11T02:32:22;94726.36;;;8.77;99.39
5777;BME280;2914;42.668;23.346;2023-05-11T02:34:57;94737.56;;;8.79;99.03
5777;BME280;2914;42.668;23.346;2023-05-11T02:37:27;94741.70;;;8.66;99.67
5777;BME280;2914;42.668;23.346;2023-05-11T02:40:01;94726.62;;;8.74;99.25
5777;BME280;2914;42.668;23.346;2023-05-11T02:42:33;94736.31;;;8.68;99.53
5777;BME280;2914;42.668;23.346;2023-05-11T02:45:06;94734.73;;;8.71;99.32
5777;BME280;2914;42.668;23.346;2023-05-11T02:47:38;94734.73;;;8.71;99.32
5777;BME280;2914;42.668;23.346;2023-05-11T02:50:09;94732.91;;;8.82;98.63
5777;BME280;2914;42.668;23.346;2023-05-11T02:52:42;94724.29;;;8.86;98.25
5777;BME280;2914;42.668;23.346;2023-05-11T02:55:12;94730.23;;;8.88;98.81
5777;BME280;2914;42.668;23.346;2023-05-11T02:57:42;94730.47;;;8.91;97.94
5777;BME280;2914;42.668;23.346;2023-05-11T03:00:13;94730.41;;;8.81;98.18
5777;BME280;2914;42.668;23.346;2023-05-11T03:02:44;94730.41;;;8.81;98.18
5777;BME280;2914;42.668;23.346;2023-05-11T03:05:13;94726.59;;;8.79;98.45
5777;BME280;2914;42.668;23.346;2023-05-11T03:07:42;94728.98;;;8.77;98.25
5777;BME280;2914;42.668;23.346;2023-05-11T03:12:54;94720.80;;;8.86;98.95
5777;BME280;2914;42.668;23.346;2023-05-11T03:18:02;94719.78;;;8.77;98.69
5777;BME280;2914;42.668;23.346;2023-05-11T03:20:35;94737.76;;;8.66;98.81
5777;BME280;2914;42.668;23.346;2023-05-11T03:23:05;94727.16;;;8.56;99.49
5777;BME280;2914;42.668;23.346;2023-05-11T03:25:35;94730.36;;;8.65;99.75
5777;BME280;2914;42.668;23.346;2023-05-11T03:30:45;94726.72;;;8.72;99.70
5777;BME280;2914;42.668;23.346;2023-05-11T03:33:14;94727.67;;;8.77;98.67
5777;BME280;2914;42.668;23.346;2023-05-11T03:38:22;94728.27;;;8.75;98.86
5777;BME280;2914;42.668;23.346;2023-05-11T03:43:32;94737.80;;;8.81;98.38
5777;BME280;2914;42.668;23.346;2023-05-11T03:46:03;94737.78;;;8.60;98.92
5777;BME280;2914;42.668;23.346;2023-05-11T03:48:33;94735.62;;;8.65;99.30
5777;BME280;2914;42.668;23.346;2023-05-11T03:51:04;94745.93;;;8.57;99.98
5777;BME280;2914;42.668;23.346;2023-05-11T03:53:33;94742.48;;;8.40;100.00
5777;BME280;2914;42.668;23.346;2023-05-11T03:56:05;94745.22;;;8.44;100.00
5777;BME280;2914;42.668;23.346;2023-05-11T03:58:37;94747.13;;;8.47;100.00
5777;BME280;2914;42.668;23.346;2023-05-11T04:03:53;94746.31;;;8.47;100.00
5777;BME280;2914;42.668;23.346;2023-05-11T04:06:22;94747.41;;;8.27;100.00
5777;BME280;2914;42.668;23.346;2023-05-11T04:08:51;94749.09;;;8.28;100.00
5777;BME280;2914;42.668;23.346;2023-05-11T04:11:20;94753.14;;;8.32;100.00
5777;BME280;2914;42.668;23.346;2023-05-11T04:13:49;94742.52;;;8.28;100.00
5777;BME280;2914;42.668;23.346;2023-05-11T04:16:18;94751.70;;;8.23;100.00
5777;BME280;2914;42.668;23.346;2023-05-11T04:18:47;94749.56;;;8.22;100.00
5777;BME280;2914;42.668;23.346;2023-05-11T04:21:16;94745.25;;;8.27;100.00
5777;BME280;2914;42.668;23.346;2023-05-11T04:23:45;94762.11;;;8.30;100.00
5777;BME280;2914;42.668;23.346;2023-05-11T04:26:14;94752.14;;;8.39;100.00
5777;BME280;2914;42.668;23.346;2023-05-11T04:28:43;94765.30;;;8.33;100.00
5777;BME280;2914;42.668;23.346;2023-05-11T04:31:12;94764.97;;;8.32;100.00
5777;BME280;2914;42.668;23.346;2023-05-11T04:33:41;94756.84;;;8.30;100.00
5777;BME280;2914;42.668;23.346;2023-05-11T04:36:10;94765.59;;;8.19;100.00
5777;BME280;2914;42.668;23.346;2023-05-11T04:38:39;94769.64;;;8.23;100.00
5777;BME280;2914;42.668;23.346;2023-05-11T04:41:08;94758.29;;;8.17;100.00
5777;BME280;2914;42.668;23.346;2023-05-11T04:43:37;94769.64;;;8.23;100.00
5777;BME280;2914;42.668;23.346;2023-05-11T04:46:07;94766.17;;;8.17;100.00
5777;BME280;2914;42.668;23.346;2023-05-11T04:48:36;94769.86;;;8.31;100.00
5777;BME280;2914;42.668;23.346;2023-05-11T04:51:05;94771.87;;;8.33;100.00
5777;BME280;2914;42.668;23.346;2023-05-11T04:53:34;94756.84;;;8.30;100.00
5777;BME280;2914;42.668;23.346;2023-05-11T04:58:41;94768.20;;;8.25;100.00
5777;BME280;2914;42.668;23.346;2023-05-11T05:01:10;94764.98;;;8.15;100.00
5777;BME280;2914;42.668;23.346;2023-05-11T05:03:39;94769.50;;;8.30;100.00
5777;BME280;2914;42.668;23.346;2023-05-11T05:06:08;94775.01;;;8.27;100.00
5777;BME280;2914;42.668;23.346;2023-05-11T05:11:18;94782.28;;;8.29;100.00
5777;BME280;2914;42.668;23.346;2023-05-11T05:16:31;94778.58;;;8.49;100.00
5777;BME280;2914;42.668;23.346;2023-05-11T05:19:01;94790.05;;;8.37;100.00
5777;BME280;2914;42.668;23.346;2023-05-11T05:21:30;94794.72;;;8.27;100.00
5777;BME280;2914;42.668;23.346;2023-05-11T05:26:38;94793.66;;;8.24;100.00
5777;BME280;2914;42.668;23.346;2023-05-11T05:31:45;94783.95;;;8.30;100.00
5777;BME280;2914;42.668;23.346;2023-05-11T05:34:14;94788.28;;;8.20;100.00
5777;BME280;2914;42.668;23.346;2023-05-11T05:36:43;94791.25;;;8.32;100.00
5777;BME280;2914;42.668;23.346;2023-05-11T05:41:52;94786.33;;;8.33;100.00
5777;BME280;2914;42.668;23.346;2023-05-11T05:46:59;94797.72;;;8.28;100.00
5777;BME280;2914;42.668;23.346;2023-05-11T05:49:28;94789.70;;;8.13;100.00
5777;BME280;2914;42.668;23.346;2023-05-11T05:51:57;94795.80;;;8.25;100.00
5777;BME280;2914;42.668;23.346;2023-05-11T05:57:09;94809.64;;;8.38;100.00
5777;BME280;2914;42.668;23.346;2023-05-11T06:02:21;94806.66;;;8.31;100.00
5777;BME280;2914;42.668;23.346;2023-05-11T06:04:50;94807.66;;;8.08;100.00
5777;BME280;2914;42.668;23.346;2023-05-11T06:07:19;94815.86;;;8.14;100.00
5777;BME280;2914;42.668;23.346;2023-05-11T06:09:48;94819.83;;;8.20;100.00
5777;BME280;2914;42.668;23.346;2023-05-11T06:12:17;94808.59;;;8.12;100.00
5777;BME280;2914;42.668;23.346;2023-05-11T06:14:46;94813.83;;;8.24;100.00
5777;BME280;2914;42.668;23.346;2023-05-11T06:17:15;94812.64;;;8.22;100.00
5777;BME280;2914;42.668;23.346;2023-05-11T06:19:45;94815.12;;;8.29;100.00
5777;BME280;2914;42.668;23.346;2023-05-11T06:22:14;94828.78;;;8.18;100.00
5777;BME280;2914;42.668;23.346;2023-05-11T06:24:43;94831.03;;;8.22;100.00
5777;BME280;2914;42.668;23.346;2023-05-11T06:27:12;94821.37;;;8.28;100.00
5777;BME280;2914;42.668;23.346;2023-05-11T06:29:41;94832.96;;;8.20;100.00
5777;BME280;2914;42.668;23.346;2023-05-11T06:32:10;94837.02;;;8.07;100.00
5777;BME280;2914;42.668;23.346;2023-05-11T06:34:39;94833.30;;;8.21;100.00
5777;BME280;2914;42.668;23.346;2023-05-11T06:37:08;94841.30;;;8.20;100.00
5777;BME280;2914;42.668;23.346;2023-05-11T06:39:37;94844.30;;;8.21;100.00
5777;BME280;2914;42.668;23.346;2023-05-11T06:42:06;94840.47;;;8.25;100.00
5777;BME280;2914;42.668;23.346;2023-05-11T06:44:35;94833.41;;;8.25;100.00
5777;BME280;2914;42.668;23.346;2023-05-11T06:47:07;94837.23;;;8.27;100.00
5777;BME280;2914;42.668;23.346;2023-05-11T06:49:36;94838.92;;;8.22;100.00
5777;BME280;2914;42.668;23.346;2023-05-11T06:52:05;94833.53;;;8.24;100.00
5777;BME280;2914;42.668;23.346;2023-05-11T06:54:35;94838.92;;;8.17;100.00
5777;BME280;2914;42.668;23.346;2023-05-11T06:57:04;94836.30;;;8.17;100.00
5777;BME280;2914;42.668;23.346;2023-05-11T06:59:33;94833.91;;;8.19;100.00
5777;BME280;2914;42.668;23.346;2023-05-11T07:02:03;94831.39;;;8.29;100.00
5777;BME280;2914;42.668;23.346;2023-05-11T07:04:32;94832.81;;;8.33;100.00
5777;BME280;2914;42.668;23.346;2023-05-11T07:07:01;94840.20;;;8.39;100.00
5777;BME280;2914;42.668;23.346;2023-05-11T07:09:30;94835.91;;;8.44;100.00
5777;BME280;2914;42.668;23.346;2023-05-11T07:11:59;94825.78;;;8.51;100.00
5777;BME280;2914;42.668;23.346;2023-05-11T07:14:28;94838.06;;;8.61;100.00
5777;BME280;2914;42.668;23.346;2023-05-11T07:16:57;94833.14;;;8.62;100.00
5777;BME280;2914;42.668;23.346;2023-05-11T07:19:26;94837.92;;;8.69;100.00
5777;BME280;2914;42.668;23.346;2023-05-11T07:21:55;94835.38;;;8.78;100.00
5777;BME280;2914;42.668;23.346;2023-05-11T07:24:24;94838.03;;;8.73;100.00
5777;BME280;2914;42.668;23.346;2023-05-11T07:26:53;94838.03;;;8.73;100.00
5777;BME280;2914;42.668;23.346;2023-05-11T07:29:23;94839.59;;;8.64;100.00
5777;BME280;2914;42.668;23.346;2023-05-11T07:31:53;94845.45;;;8.68;100.00
5777;BME280;2914;42.668;23.346;2023-05-11T07:34:22;94838.98;;;8.72;100.00
5777;BME280;2914;42.668;23.346;2023-05-11T07:36:51;94837.73;;;8.87;100.00
5777;BME280;2914;42.668;23.346;2023-05-11T07:39:20;94837.73;;;8.87;100.00
5777;BME280;2914;42.668;23.346;2023-05-11T07:41:49;94838.41;;;9.00;100.00
5777;BME280;2914;42.668;23.346;2023-05-11T07:44:18;94843.78;;;9.05;100.00
5777;BME280;2914;42.668;23.346;2023-05-11T07:46:47;94845.14;;;9.20;100.00
5777;BME280;2914;42.668;23.346;2023-05-11T07:49:17;94846.95;;;9.41;100.00
5777;BME280;2914;42.668;23.346;2023-05-11T07:51:46;94846.95;;;9.41;100.00
5777;BME280;2914;42.668;23.346;2023-05-11T07:54:15;94843.99;;;9.34;98.56
5777;BME280;2914;42.668;23.346;2023-05-11T07:56:44;94846.59;;;9.45;98.96
5777;BME280;2914;42.668;23.346;2023-05-11T07:59:13;94854.30;;;9.37;97.95
5777;BME280;2914;42.668;23.346;2023-05-11T08:04:27;94848.45;;;9.76;96.80
5777;BME280;2914;42.668;23.346;2023-05-11T08:06:56;94844.21;;;9.63;93.84
5777;BME280;2914;42.668;23.346;2023-05-11T08:09:25;94844.21;;;9.63;93.84
5777;BME280;2914;42.668;23.346;2023-05-11T08:11:55;94848.06;;;9.59;94.93
5777;BME280;2914;42.668;23.346;2023-05-11T08:14:24;94850.69;;;9.96;92.24
5777;BME280;2914;42.668;23.346;2023-05-11T08:16:53;94850.69;;;9.96;92.24
5777;BME280;2914;42.668;23.346;2023-05-11T08:19:22;94851.09;;;10.07;91.57
5777;BME280;2914;42.668;23.346;2023-05-11T08:21:51;94844.00;;;9.92;90.92
5777;BME280;2914;42.668;23.346;2023-05-11T08:24:20;94843.05;;;9.93;91.02
5777;BME280;2914;42.668;23.346;2023-05-11T08:26:49;94843.98;;;10.13;89.97
5777;BME280;2914;42.668;23.346;2023-05-11T08:29:18;94843.98;;;10.13;89.97
5777;BME280;2914;42.668;23.346;2023-05-11T08:31:47;94846.98;;;10.14;89.44
5777;BME280;2914;42.668;23.346;2023-05-11T08:37:00;94844.16;;;10.62;86.75
5777;BME280;2914;42.668;23.346;2023-05-11T08:39:32;94841.25;;;10.55;86.84
5777;BME280;2914;42.668;23.346;2023-05-11T08:42:02;94841.25;;;10.55;86.84
5777;BME280;2914;42.668;23.346;2023-05-11T08:44:35;94861.72;;;10.57;84.93
5777;BME280;2914;42.668;23.346;2023-05-11T08:47:06;94861.72;;;10.57;84.93
5777;BME280;2914;42.668;23.346;2023-05-11T08:49:36;94867.98;;;10.41;86.46
5777;BME280;2914;42.668;23.346;2023-05-11T08:52:06;94867.98;;;10.41;86.46
5777;BME280;2914;42.668;23.346;2023-05-11T08:54:35;94844.75;;;10.19;87.71
5777;BME280;2914;42.668;23.346;2023-05-11T08:57:04;94848.64;;;10.30;88.32
5777;BME280;2914;42.668;23.346;2023-05-11T08:59:34;94848.64;;;10.30;88.32
5777;BME280;2914;42.668;23.346;2023-05-11T09:02:04;94841.97;;;10.26;88.32
5777;BME280;2914;42.668;23.346;2023-05-11T09:04:34;94841.97;;;10.26;88.32
5777;BME280;2914;42.668;23.346;2023-05-11T09:07:04;94832.16;;;10.23;88.98
5777;BME280;2914;42.668;23.346;2023-05-11T09:09:34;94836.52;;;10.18;91.17
5777;BME280;2914;42.668;23.346;2023-05-11T09:12:04;94836.52;;;10.18;91.17
5777;BME280;2914;42.668;23.346;2023-05-11T09:14:33;94822.35;;;10.50;91.61
5777;BME280;2914;42.668;23.346;2023-05-11T09:17:03;94829.62;;;10.67;90.87
5777;BME280;2914;42.668;23.346;2023-05-11T09:19:33;94830.36;;;10.64;90.82
5777;BME280;2914;42.668;23.346;2023-05-11T09:22:04;94830.36;;;10.64;90.82
5777;BME280;2914;42.668;23.346;2023-05-11T09:24:34;94830.78;;;10.59;90.92
5777;BME280;2914;42.668;23.346;2023-05-11T09:27:08;94838.02;;;10.77;90.80
5777;BME280;2914;42.668;23.346;2023-05-11T09:29:37;94852.65;;;10.65;90.64
5777;BME280;2914;42.668;23.346;2023-05-11T09:32:07;94827.48;;;10.51;92.80
5777;BME280;2914;42.668;23.346;2023-05-11T09:34:36;94820.30;;;10.23;93.06
5777;BME280;2914;42.668;23.346;2023-05-11T09:37:07;94820.30;;;10.23;93.06
5777;BME280;2914;42.668;23.346;2023-05-11T09:39:37;94820.19;;;10.34;93.67
5777;BME280;2914;42.668;23.346;2023-05-11T09:42:14;94833.53;;;10.17;93.74
5777;BME280;2914;42.668;23.346;2023-05-11T09:44:44;94826.31;;;10.04;95.46
5777;BME280;2914;42.668;23.346;2023-05-11T09:47:14;94829.04;;;10.08;95.68
5777;BME280;2914;42.668;23.346;2023-05-11T09:49:45;94843.18;;;9.91;95.88
5777;BME280;2914;42.668;23.346;2023-05-11T09:52:16;94834.05;;;9.95;96.42
5777;BME280;2914;42.668;23.346;2023-05-11T09:54:49;94820.47;;;10.00;96.65
5777;BME280;2914;42.668;23.346;2023-05-11T09:57:25;94810.34;;;10.21;95.70
5777;BME280;2914;42.668;23.346;2023-05-11T09:59:55;94816.82;;;10.07;95.55
5777;BME280;2914;42.668;23.346;2023-05-11T10:02:26;94816.82;;;10.07;95.55
5777;BME280;2914;42.668;23.346;2023-05-11T10:04:57;94809.58;;;10.14;96.18
5777;BME280;2914;42.668;23.346;2023-05-11T10:07:28;94797.06;;;10.22;94.76
5777;BME280;2914;42.668;23.346;2023-05-11T10:09:59;94806.53;;;10.19;94.16
5777;BME280;2914;42.668;23.346;2023-05-11T10:12:29;94809.69;;;10.28;94.71
5777;BME280;2914;42.668;23.346;2023-05-11T10:15:02;94790.11;;;10.21;95.88
5777;BME280;2914;42.668;23.346;2023-05-11T10:17:32;94796.20;;;10.37;93.58
5777;BME280;2914;42.668;23.346;2023-05-11T10:20:02;94790.14;;;10.56;93.79
5777;BME280;2914;42.668;23.346;2023-05-11T10:22:32;94790.14;;;10.56;93.79
5777;BME280;2914;42.668;23.346;2023-05-11T10:25:03;94793.08;;;10.63;93.37
5777;BME280;2914;42.668;23.346;2023-05-11T10:27:33;94785.88;;;10.65;92.85
5777;BME280;2914;42.668;23.346;2023-05-11T10:30:06;94785.88;;;10.65;92.85
5777;BME280;2914;42.668;23.346;2023-05-11T10:32:37;94783.23;;;10.65;92.35
5777;BME280;2914;42.668;23.346;2023-05-11T10:35:09;94764.84;;;10.59;91.41
5777;BME280;2914;42.668;23.346;2023-05-11T10:40:16;94771.01;;;10.64;91.28
5777;BME280;2914;42.668;23.346;2023-05-11T10:43:07;94770.36;;;10.56;91.77
5777;BME280;2914;42.668;23.346;2023-05-11T10:45:36;94770.36;;;10.56;91.77
5777;BME280;2914;42.668;23.346;2023-05-11T10:48:32;94772.75;;;10.59;90.82
5777;BME280;2914;42.668;23.346;2023-05-11T10:51:12;94777.33;;;10.77;89.95
5777;BME280;2914;42.668;23.346;2023-05-11T10:54:05;94777.33;;;10.77;89.95
5777;BME280;2914;42.668;23.346;2023-05-11T11:02:33;94770.53;;;11.13;88.50
5777;BME280;2914;42.668;23.346;2023-05-11T11:05:03;94770.53;;;11.13;88.50
5777;BME280;2914;42.668;23.346;2023-05-11T11:07:56;94752.68;;;11.21;87.37
5777;BME280;2914;42.668;23.346;2023-05-11T11:10:33;94770.47;;;11.09;86.90
5777;BME280;2914;42.668;23.346;2023-05-11T11:13:04;94764.14;;;11.16;87.52
5777;BME280;2914;42.668;23.346;2023-05-11T11:16:07;94762.05;;;11.10;86.80
5777;BME280;2914;42.668;23.346;2023-05-11T11:18:37;94772.89;;;11.07;87.41
5777;BME280;2914;42.668;23.346;2023-05-11T11:21:06;94772.89;;;11.07;87.41
5777;BME280;2914;42.668;23.346;2023-05-11T11:23:45;94750.05;;;11.21;88.22
5777;BME280;2914;42.668;23.346;2023-05-11T11:26:44;94750.05;;;11.21;88.22
5777;BME280;2914;42.668;23.346;2023-05-11T11:29:10;94779.84;;;11.08;87.82
5777;BME280;2914;42.668;23.346;2023-05-11T11:31:39;94779.84;;;11.08;87.82
5777;BME280;2914;42.668;23.346;2023-05-11T11:34:33;94757.69;;;11.14;88.64
5777;BME280;2914;42.668;23.346;2023-05-11T11:37:08;94751.81;;;11.30;88.18
5777;BME280;2914;42.668;23.346;2023-05-11T11:39:57;94756.43;;;11.52;86.86
5777;BME280;2914;42.668;23.346;2023-05-11T11:42:35;94763.86;;;11.62;86.73
5777;BME280;2914;42.668;23.346;2023-05-11T11:45:30;94755.55;;;11.71;85.58
5777;BME280;2914;42.668;23.346;2023-05-11T11:48:14;94760.86;;;11.61;85.94
5777;BME280;2914;42.668;23.346;2023-05-11T11:50:48;94749.88;;;11.56;85.39
5777;BME280;2914;42.668;23.346;2023-05-11T11:56:43;94753.52;;;11.69;86.47
5777;BME280;2914;42.668;23.346;2023-05-11T11:59:13;94739.58;;;11.63;84.66
5777;BME280;2914;42.668;23.346;2023-05-11T12:01:43;94759.34;;;11.59;86.54
5777;BME280;2914;42.668;23.346;2023-05-11T12:04:38;94734.39;;;11.57;86.04
5777;BME280;2914;42.668;23.346;2023-05-11T12:07:09;94734.39;;;11.57;86.04
5777;BME280;2914;42.668;23.346;2023-05-11T12:09:41;94743.16;;;11.48;87.33
5777;BME280;2914;42.668;23.346;2023-05-11T12:12:12;94754.38;;;11.46;87.33
5777;BME280;2914;42.668;23.346;2023-05-11T12:14:41;94748.39;;;11.44;87.12
5777;BME280;2914;42.668;23.346;2023-05-11T12:17:12;94748.39;;;11.44;87.12
5777;BME280;2914;42.668;23.346;2023-05-11T12:19:43;94739.52;;;11.35;86.38
5777;BME280;2914;42.668;23.346;2023-05-11T12:22:13;94745.12;;;11.36;88.35
5777;BME280;2914;42.668;23.346;2023-05-11T12:24:43;94745.12;;;11.36;88.35
5777;BME280;2914;42.668;23.346;2023-05-11T12:27:12;94729.92;;;11.34;88.85
5777;BME280;2914;42.668;23.346;2023-05-11T12:29:43;94737.41;;;11.38;88.62
5777;BME280;2914;42.668;23.346;2023-05-11T12:32:13;94738.47;;;11.42;88.67
5777;BME280;2914;42.668;23.346;2023-05-11T12:34:42;94739.78;;;11.42;86.57
5777;BME280;2914;42.668;23.346;2023-05-11T12:37:13;94723.94;;;11.32;86.47
5777;BME280;2914;42.668;23.346;2023-05-11T12:39:42;94728.84;;;11.50;86.54
5777;BME280;2914;42.668;23.346;2023-05-11T12:42:12;94741.78;;;11.44;85.91
5777;BME280;2914;42.668;23.346;2023-05-11T12:44:43;94727.63;;;11.59;85.86
5777;BME280;2914;42.668;23.346;2023-05-11T12:47:12;94722.50;;;11.57;85.77
5777;BME280;2914;42.668;23.346;2023-05-11T12:49:42;94701.25;;;11.49;85.85
5777;BME280;2914;42.668;23.346;2023-05-11T12:52:13;94711.47;;;11.48;84.68
5777;BME280;2914;42.668;23.346;2023-05-11T12:54:47;94698.02;;;11.55;84.02
5777;BME280;2914;42.668;23.346;2023-05-11T12:57:25;94688.14;;;11.43;85.96
5777;BME280;2914;42.668;23.346;2023-05-11T13:00:10;94695.00;;;11.50;85.45
5777;BME280;2914;42.668;23.346;2023-05-11T13:02:48;94695.00;;;11.50;85.45
5777;BME280;2914;42.668;23.346;2023-05-11T13:05:23;94696.02;;;11.53;84.61
5777;BME280;2914;42.668;23.346;2023-05-11T13:07:56;94705.63;;;11.54;85.63
5777;BME280;2914;42.668;23.346;2023-05-11T13:10:27;94692.53;;;11.52;83.46
5777;BME280;2914;42.668;23.346;2023-05-11T13:12:56;94692.53;;;11.52;83.46
5777;BME280;2914;42.668;23.346;2023-05-11T13:15:26;94676.01;;;11.50;83.90
5777;BME280;2914;42.668;23.346;2023-05-11T13:18:00;94696.73;;;11.45;84.64
5777;BME280;2914;42.668;23.346;2023-05-11T13:20:31;94690.23;;;11.53;84.84
5777;BME280;2914;42.668;23.346;2023-05-11T13:23:05;94695.67;;;11.52;85.33
5777;BME280;2914;42.668;23.346;2023-05-11T13:25:49;94696.37;;;11.54;85.37
5777;BME280;2914;42.668;23.346;2023-05-11T13:28:05;94686.03;;;11.61;86.19
5777;BME280;2914;42.668;23.346;2023-05-11T13:30:35;94695.43;;;11.59;86.07
5777;BME280;2914;42.668;23.346;2023-05-11T13:33:04;94685.86;;;11.58;85.52
5777;BME280;2914;42.668;23.346;2023-05-11T13:35:37;94683.33;;;11.66;85.66
5777;BME280;2914;42.668;23.346;2023-05-11T13:38:06;94689.28;;;11.68;86.00
5777;BME280;2914;42.668;23.346;2023-05-11T13:40:36;94673.13;;;11.71;84.60
5777;BME280;2914;42.668;23.346;2023-05-11T13:43:05;94673.13;;;11.71;84.60
5777;BME280;2914;42.668;23.346;2023-05-11T13:45:35;94674.70;;;11.64;85.41
5777;BME280;2914;42.668;23.346;2023-05-11T13:48:06;94680.09;;;11.73;85.57
5777;BME280;2914;42.668;23.346;2023-05-11T13:50:35;94673.23;;;11.80;85.99
5777;BME280;2914;42.668;23.346;2023-05-11T13:53:04;94689.54;;;11.89;86.27
5777;BME280;2914;42.668;23.346;2023-05-11T13:55:35;94669.86;;;11.87;85.13
5777;BME280;2914;42.668;23.346;2023-05-11T13:58:05;94679.39;;;11.94;84.66
5777;BME280;2914;42.668;23.346;2023-05-11T14:03:11;94673.67;;;11.89;85.54
5777;BME280;2914;42.668;23.346;2023-05-11T14:08:23;94651.91;;;11.91;86.50
5777;BME280;2914;42.668;23.346;2023-05-11T14:10:52;94669.47;;;11.82;85.66
5777;BME280;2914;42.668;23.346;2023-05-11T14:13:22;94661.39;;;11.84;85.31
5777;BME280;2914;42.668;23.346;2023-05-11T14:15:52;94666.25;;;11.88;85.64
5777;BME280;2914;42.668;23.346;2023-05-11T14:21:05;94647.06;;;12.00;84.53
5777;BME280;2914;42.668;23.346;2023-05-11T14:23:34;94663.28;;;12.01;83.91
5777;BME280;2914;42.668;23.346;2023-05-11T14:26:03;94656.34;;;11.91;84.08
5777;BME280;2914;42.668;23.346;2023-05-11T14:28:33;94659.49;;;11.90;84.87
5777;BME280;2914;42.668;23.346;2023-05-11T14:33:41;94626.92;;;11.99;84.88
5777;BME280;2914;42.668;23.346;2023-05-11T14:38:46;94648.06;;;11.89;83.43
5777;BME280;2914;42.668;23.346;2023-05-11T14:41:15;94658.32;;;11.88;82.80
5777;BME280;2914;42.668;23.346;2023-05-11T14:43:45;94677.02;;;11.91;82.49
5777;BME280;2914;42.668;23.346;2023-05-11T14:46:15;94672.70;;;11.90;82.65